Wiconisco, Pennsylvania
Current Conditions -  °F | °C
As of 10:58 PM on Saturday 22 Nov 2014 (Local Time) from KMUI Reporting Station
Clear Clear  
Wind Chill:   Ceiling: Unl
Heat Index:   Visibility: 10mi
Dew Point: -6°   Wind: 1mph
Humidity: 67%   Direction: NA
Pressure: 30.22"   Gusts: NA
Location:  40.57°N, 76.69°W
Report Text: KMUI 230358Z AUTO VRB01KT 10SM CLR 00/M06 A3022 RMK AO2 SLP241 T10031057 $
Loading
Personal Weather Stations






























Interactive Weather Map New forecast layout! Learn more

10-Day Weather Forecast

Advertisements
Track Severe Weather on mobile